createdAt,value
2019-05-11T00:00:06.098Z,8.10
2019-05-11T00:02:35.392Z,8.10
2019-05-11T00:05:04.862Z,8.10
2019-05-11T00:07:34.196Z,8.00
2019-05-11T00:10:03.814Z,8.00
2019-05-11T00:12:33.343Z,8.00
2019-05-11T00:15:02.774Z,8.00
2019-05-11T00:17:32.139Z,8.00
2019-05-11T00:20:01.608Z,8.10
2019-05-11T00:22:31.275Z,8.10
2019-05-11T00:25:00.560Z,8.10
2019-05-11T00:27:29.924Z,8.10
2019-05-11T00:29:59.397Z,8.10
2019-05-11T00:32:28.744Z,8.10
2019-05-11T00:34:58.099Z,8.10
2019-05-11T00:37:27.472Z,8.10
2019-05-11T00:40:12.096Z,8.10
2019-05-11T00:42:27.891Z,8.10
2019-05-11T00:44:57.321Z,8.00
2019-05-11T00:47:26.650Z,8.00
2019-05-11T00:49:55.876Z,8.00
2019-05-11T00:52:25.148Z,8.00
2019-05-11T00:54:54.455Z,8.00
2019-05-11T00:57:23.832Z,8.00
2019-05-11T00:59:53.183Z,8.00
2019-05-11T01:02:22.450Z,8.00
2019-05-11T01:04:51.733Z,8.00
2019-05-11T01:07:21.032Z,8.00
2019-05-11T01:09:50.406Z,8.00
2019-05-11T01:12:19.788Z,8.00
2019-05-11T01:14:49.137Z,8.00
2019-05-11T01:17:18.460Z,8.00
2019-05-11T01:19:47.899Z,8.00
2019-05-11T01:22:17.179Z,8.00
2019-05-11T01:24:46.566Z,8.00
2019-05-11T01:27:15.872Z,8.00
2019-05-11T01:29:45.430Z,8.00
2019-05-11T01:32:14.698Z,8.00
2019-05-11T01:34:44.083Z,8.00
2019-05-11T01:37:13.361Z,8.00
2019-05-11T01:39:42.839Z,8.00
2019-05-11T01:42:12.197Z,8.00
2019-05-11T01:44:41.469Z,8.00
2019-05-11T01:47:10.763Z,8.00
2019-05-11T01:49:40.071Z,8.00
2019-05-11T01:52:09.392Z,8.00
2019-05-11T01:54:38.759Z,8.00
2019-05-11T01:57:08.026Z,8.00
2019-05-11T01:59:37.299Z,8.00
2019-05-11T02:02:06.729Z,8.00
2019-05-11T02:04:35.949Z,8.00
2019-05-11T02:07:05.309Z,8.00
2019-05-11T02:09:34.557Z,8.00
2019-05-11T02:12:03.964Z,8.00
2019-05-11T02:14:33.208Z,8.00
2019-05-11T02:17:02.843Z,8.00
2019-05-11T02:19:32.704Z,8.10
2019-05-11T02:22:02.073Z,8.10
2019-05-11T02:24:31.430Z,8.00
2019-05-11T02:27:00.731Z,8.10
2019-05-11T02:29:30.133Z,8.10
2019-05-11T02:31:59.429Z,8.10
2019-05-11T02:34:28.934Z,8.10
2019-05-11T02:36:58.375Z,8.10
2019-05-11T02:39:27.792Z,8.00
2019-05-11T02:41:57.296Z,8.00
2019-05-11T02:44:26.652Z,8.00
2019-05-11T02:46:56.118Z,8.00
2019-05-11T02:49:28.045Z,8.00
2019-05-11T02:51:56.834Z,8.00
2019-05-11T02:54:26.185Z,8.00
2019-05-11T02:56:55.552Z,8.00
2019-05-11T02:59:29.478Z,8.00
2019-05-11T03:01:56.015Z,8.00
2019-05-11T03:04:25.326Z,8.00
2019-05-11T03:06:54.699Z,8.00
2019-05-11T03:09:24.064Z,8.00
2019-05-11T03:11:56.023Z,8.00
2019-05-11T03:14:24.488Z,8.00
2019-05-11T03:17:10.634Z,8.00
2019-05-11T03:19:40.202Z,8.00
2019-05-11T03:22:09.586Z,8.00
2019-05-11T03:24:39.053Z,8.00
2019-05-11T03:27:08.419Z,8.00
2019-05-11T03:29:37.879Z,8.00
2019-05-11T03:32:07.422Z,8.00
2019-05-11T03:34:36.929Z,8.00
2019-05-11T03:37:06.375Z,8.00
2019-05-11T03:39:35.825Z,8.00
2019-05-11T03:42:14.454Z,8.00
2019-05-11T03:44:36.429Z,8.00
2019-05-11T03:47:05.878Z,8.00
2019-05-11T03:49:35.267Z,7.90
2019-05-11T03:52:04.639Z,7.90
2019-05-11T03:54:33.879Z,7.90
2019-05-11T03:57:03.234Z,7.90
2019-05-11T03:59:32.608Z,7.90
2019-05-11T04:02:01.912Z,7.90
2019-05-11T04:04:31.115Z,7.90
2019-05-11T04:07:00.453Z,7.90
2019-05-11T04:09:29.722Z,7.90
2019-05-11T04:11:59.046Z,7.90
2019-05-11T04:14:28.407Z,7.90
2019-05-11T04:16:57.835Z,7.90
2019-05-11T04:19:27.090Z,8.00
2019-05-11T04:21:56.438Z,8.00
2019-05-11T04:24:25.821Z,8.00
2019-05-11T04:26:55.226Z,8.00
2019-05-11T04:29:27.766Z,8.00
2019-05-11T04:31:57.202Z,8.00
2019-05-11T04:34:26.485Z,8.00
2019-05-11T04:36:55.852Z,8.00
2019-05-11T04:39:25.102Z,8.00
2019-05-11T04:41:54.481Z,8.00
2019-05-11T04:44:23.775Z,8.00
2019-05-11T04:46:53.162Z,8.00
2019-05-11T04:49:22.504Z,8.00
2019-05-11T04:51:51.893Z,8.00
2019-05-11T04:54:21.204Z,8.10
2019-05-11T04:56:50.576Z,8.10
2019-05-11T04:59:19.926Z,8.10
2019-05-11T05:01:49.217Z,8.10
2019-05-11T05:04:18.527Z,8.20
2019-05-11T05:06:59.479Z,8.20
2019-05-11T05:09:18.944Z,8.20
2019-05-11T05:11:48.329Z,8.20
2019-05-11T05:14:17.769Z,8.20
2019-05-11T05:16:47.027Z,8.30
2019-05-11T05:19:16.290Z,8.30
2019-05-11T05:21:45.476Z,8.40
2019-05-11T05:24:14.746Z,8.40
2019-05-11T05:26:44.116Z,8.40
2019-05-11T05:29:13.424Z,8.50
2019-05-11T05:31:42.760Z,8.50
2019-05-11T05:34:12.223Z,8.60
2019-05-11T05:36:41.573Z,8.60
2019-05-11T05:39:10.933Z,8.60
2019-05-11T05:41:40.283Z,8.70
2019-05-11T05:44:09.498Z,8.70
2019-05-11T05:46:38.831Z,8.80
2019-05-11T05:49:08.282Z,8.80
2019-05-11T05:51:37.562Z,8.90
2019-05-11T05:54:06.861Z,9.00
2019-05-11T05:56:36.237Z,9.00
2019-05-11T05:59:05.641Z,9.10
2019-05-11T06:01:35.000Z,9.10
2019-05-11T06:04:04.264Z,9.10
2019-05-11T06:06:33.558Z,9.10
2019-05-11T06:09:03.696Z,9.20
2019-05-11T06:11:33.072Z,9.30
2019-05-11T06:14:02.439Z,9.40
2019-05-11T06:16:31.889Z,9.40
2019-05-11T06:19:01.116Z,9.50
2019-05-11T06:21:30.394Z,9.60
2019-05-11T06:24:05.935Z,9.60
2019-05-11T06:26:30.729Z,9.60
2019-05-11T06:28:59.979Z,9.60
2019-05-11T06:31:31.016Z,9.60
2019-05-11T06:34:00.417Z,9.70
2019-05-11T06:36:29.788Z,9.70
2019-05-11T06:38:59.152Z,9.70
2019-05-11T06:41:28.627Z,9.70
2019-05-11T06:44:01.649Z,9.70
2019-05-11T06:46:28.934Z,9.80
2019-05-11T06:48:58.304Z,9.80
2019-05-11T06:51:27.548Z,9.80
2019-05-11T06:53:56.954Z,9.90
2019-05-11T06:56:26.407Z,10.00
2019-05-11T06:58:55.650Z,10.10
2019-05-11T07:01:24.903Z,10.10
2019-05-11T07:03:54.326Z,10.20
2019-05-11T07:06:26.861Z,10.30
2019-05-11T07:08:54.805Z,10.40
2019-05-11T07:11:24.098Z,10.50
2019-05-11T07:13:53.474Z,10.60
2019-05-11T07:16:23.277Z,10.60
2019-05-11T07:18:52.535Z,10.70
2019-05-11T07:21:21.705Z,10.60
2019-05-11T07:23:51.270Z,10.60
2019-05-11T07:26:20.563Z,10.70
2019-05-11T07:28:49.940Z,10.70
2019-05-11T07:31:19.329Z,10.70
2019-05-11T07:33:48.758Z,10.70
2019-05-11T07:36:18.312Z,10.70
2019-05-11T07:38:48.709Z,10.80
2019-05-11T07:41:18.162Z,10.80
2019-05-11T07:43:48.513Z,10.80
2019-05-11T07:46:18.336Z,10.80
2019-05-11T07:48:48.050Z,10.80
2019-05-11T07:51:18.241Z,10.80
2019-05-11T07:53:48.595Z,10.80
2019-05-11T07:56:18.931Z,10.80
2019-05-11T07:58:48.384Z,10.80
2019-05-11T08:01:18.887Z,10.90
2019-05-11T08:03:48.637Z,11.10
2019-05-11T08:06:18.534Z,11.20
2019-05-11T08:08:48.995Z,11.40
2019-05-11T08:11:18.681Z,11.50
2019-05-11T08:13:48.277Z,11.50
2019-05-11T08:16:18.542Z,11.60
2019-05-11T08:18:48.475Z,11.60
2019-05-11T08:21:18.049Z,11.60
2019-05-11T08:23:48.292Z,11.60
2019-05-11T08:26:19.083Z,11.60
2019-05-11T08:28:48.792Z,11.70
2019-05-11T08:31:18.834Z,11.70
2019-05-11T08:33:49.227Z,11.70
2019-05-11T08:36:18.684Z,11.70
2019-05-11T08:38:48.505Z,11.70
2019-05-11T08:41:18.598Z,11.80
2019-05-11T08:43:48.573Z,11.80
2019-05-11T08:46:18.692Z,11.70
2019-05-11T08:48:48.252Z,11.70
2019-05-11T08:51:18.673Z,11.70
2019-05-11T08:53:48.366Z,11.60
2019-05-11T08:56:19.022Z,11.70
2019-05-11T08:58:49.325Z,11.60
2019-05-11T09:01:19.193Z,11.60
2019-05-11T09:03:48.861Z,11.40
2019-05-11T09:06:18.385Z,11.50
2019-05-11T09:08:49.263Z,11.60
2019-05-11T09:11:19.267Z,11.70
2019-05-11T09:13:49.111Z,11.60
2019-05-11T09:16:21.263Z,11.60
2019-05-11T09:18:50.677Z,11.60
2019-05-11T09:21:20.551Z,11.60
2019-05-11T09:23:50.070Z,11.50
2019-05-11T09:26:19.655Z,11.50
2019-05-11T09:28:49.095Z,11.40
2019-05-11T09:31:18.988Z,11.40
2019-05-11T09:33:48.474Z,11.40
2019-05-11T09:36:18.249Z,11.30
2019-05-11T09:38:48.916Z,11.40
2019-05-11T09:41:18.570Z,11.50
2019-05-11T09:43:48.405Z,11.50
2019-05-11T09:46:18.838Z,11.50
2019-05-11T09:48:48.591Z,11.50
2019-05-11T09:51:18.561Z,11.40
2019-05-11T09:53:48.566Z,11.20
2019-05-11T09:56:18.540Z,11.20
2019-05-11T09:58:48.263Z,11.20
2019-05-11T10:01:18.519Z,11.20
2019-05-11T10:04:08.978Z,11.20
2019-05-11T10:06:38.977Z,11.30
2019-05-11T10:09:10.033Z,11.30
2019-05-11T10:11:40.022Z,11.30
2019-05-11T10:14:09.339Z,11.30
2019-05-11T10:16:38.855Z,11.30
2019-05-11T10:19:09.320Z,11.50
2019-05-11T10:21:40.533Z,11.60
2019-05-11T10:24:09.869Z,11.70
2019-05-11T10:26:39.252Z,11.80
2019-05-11T10:29:08.657Z,11.90
2019-05-11T10:31:38.572Z,12.00
2019-05-11T10:34:08.787Z,12.20
2019-05-11T10:36:38.657Z,12.20
2019-05-11T10:39:09.431Z,12.30
2019-05-11T10:41:38.879Z,12.50
2019-05-11T10:44:08.414Z,12.30
2019-05-11T10:46:38.118Z,12.20
2019-05-11T10:49:08.103Z,12.20
2019-05-11T10:51:38.284Z,12.30
2019-05-11T10:54:08.666Z,12.40
2019-05-11T10:56:39.012Z,12.20
2019-05-11T10:59:08.674Z,12.10
2019-05-11T11:01:38.280Z,12.10
2019-05-11T11:04:08.001Z,12.20
2019-05-11T11:06:38.616Z,12.20
2019-05-11T11:09:09.750Z,12.30
2019-05-11T11:11:39.433Z,12.40
2019-05-11T11:14:09.815Z,12.30
2019-05-11T11:16:42.719Z,12.20
2019-05-11T11:19:10.327Z,12.30
2019-05-11T11:21:39.761Z,12.30
2019-05-11T11:24:09.185Z,12.30
2019-05-11T11:26:38.719Z,12.40
2019-05-11T11:29:08.624Z,12.60
2019-05-11T11:31:38.190Z,12.70
2019-05-11T11:34:08.255Z,12.90
2019-05-11T11:36:37.782Z,12.90
2019-05-11T11:39:08.486Z,13.00
2019-05-11T11:41:38.072Z,13.10
2019-05-11T11:44:08.056Z,13.10
2019-05-11T11:46:51.359Z,13.10
2019-05-11T11:49:08.683Z,13.20
2019-05-11T11:51:38.021Z,13.10
2019-05-11T11:54:08.794Z,13.10
2019-05-11T11:56:38.312Z,13.30
2019-05-11T11:59:08.522Z,13.50
2019-05-11T12:01:38.617Z,13.60
2019-05-11T12:04:08.388Z,13.70
2019-05-11T12:06:38.546Z,13.90
2019-05-11T12:09:09.063Z,14.10
2019-05-11T12:11:38.567Z,14.20
2019-05-11T12:14:09.039Z,14.30
2019-05-11T12:16:38.949Z,14.30
2019-05-11T12:19:08.632Z,14.30
2019-05-11T12:21:38.338Z,14.20
2019-05-11T12:24:08.336Z,14.20
2019-05-11T12:26:38.816Z,13.90
2019-05-11T12:29:08.801Z,13.80
2019-05-11T12:31:38.109Z,13.80
2019-05-11T12:34:08.844Z,13.60
2019-05-11T12:36:38.826Z,13.30
2019-05-11T12:39:08.947Z,13.30
2019-05-11T12:41:38.860Z,13.40
2019-05-11T12:44:08.608Z,13.20
2019-05-11T12:46:39.516Z,13.40
2019-05-11T12:49:08.866Z,13.30
2019-05-11T12:51:38.426Z,13.40
2019-05-11T12:54:08.407Z,13.30
2019-05-11T12:56:38.461Z,13.30
2019-05-11T12:59:08.336Z,13.40
2019-05-11T13:01:38.315Z,13.50
2019-05-11T13:04:08.950Z,13.60
2019-05-11T13:06:38.659Z,13.50
2019-05-11T13:09:08.694Z,13.50
2019-05-11T13:11:38.150Z,13.50
2019-05-11T13:14:08.131Z,13.50
2019-05-11T13:16:37.983Z,13.50
2019-05-11T13:19:08.472Z,13.50
2019-05-11T13:21:38.378Z,13.50
2019-05-11T13:24:08.495Z,13.50
2019-05-11T13:26:38.208Z,13.50
2019-05-11T13:29:07.912Z,13.50
2019-05-11T13:31:38.416Z,13.60
2019-05-11T13:34:08.491Z,13.60
2019-05-11T13:36:38.366Z,13.60
2019-05-11T13:39:08.976Z,13.80
2019-05-11T13:41:42.972Z,13.80
2019-05-11T13:44:12.253Z,13.70
2019-05-11T13:46:41.489Z,13.80
2019-05-11T13:49:10.908Z,13.90
2019-05-11T13:51:40.241Z,14.00
2019-05-11T13:54:09.503Z,14.10
2019-05-11T13:56:38.727Z,14.00
2019-05-11T13:59:10.683Z,14.10
2019-05-11T14:01:40.241Z,14.20
2019-05-11T14:04:09.703Z,14.20
2019-05-11T14:06:38.975Z,14.50
2019-05-11T14:09:09.511Z,14.50
2019-05-11T14:11:39.196Z,14.30
2019-05-11T14:14:08.559Z,14.10
2019-05-11T14:16:38.109Z,14.10
2019-05-11T14:19:08.677Z,14.20
2019-05-11T14:24:09.216Z,14.30
2019-05-11T14:26:38.774Z,14.20
2019-05-11T14:29:08.694Z,14.10
2019-05-11T14:31:38.582Z,13.90
2019-05-11T14:32:21.396Z,14.20
2019-05-11T14:34:08.830Z,13.80
2019-05-11T14:36:38.916Z,13.70
2019-05-11T14:39:08.884Z,13.60
2019-05-11T14:41:38.476Z,13.60
2019-05-11T14:44:08.797Z,13.50
2019-05-11T14:46:38.675Z,13.50
2019-05-11T14:49:08.160Z,13.50
2019-05-11T14:51:39.136Z,13.50
2019-05-11T14:54:08.541Z,13.50
2019-05-11T14:56:38.146Z,13.40
2019-05-11T14:59:09.015Z,13.30
2019-05-11T15:01:38.631Z,13.40
2019-05-11T15:04:09.072Z,13.50
2019-05-11T15:06:38.810Z,13.60
2019-05-11T15:09:08.625Z,13.70
2019-05-11T15:11:38.809Z,13.70
2019-05-11T15:14:08.390Z,13.80
2019-05-11T15:16:38.511Z,13.70
2019-05-11T15:19:08.223Z,13.70
2019-05-11T15:21:38.690Z,13.80
2019-05-11T15:24:09.083Z,14.00
2019-05-11T15:26:38.609Z,14.10
2019-05-11T15:29:08.311Z,14.30
2019-05-11T15:31:38.206Z,14.60
2019-05-11T15:34:08.558Z,14.60
2019-05-11T15:36:38.829Z,14.80
2019-05-11T15:39:08.560Z,14.90
2019-05-11T15:41:38.831Z,14.90
2019-05-11T15:44:11.807Z,14.90
2019-05-11T15:46:39.414Z,15.00
2019-05-11T15:49:09.027Z,15.20
2019-05-11T15:51:41.212Z,15.30
2019-05-11T15:54:09.433Z,15.30
2019-05-11T15:56:38.851Z,15.20
2019-05-11T15:59:08.597Z,15.10
2019-05-11T16:01:41.067Z,15.10
2019-05-11T16:04:09.297Z,15.00
2019-05-11T16:06:38.671Z,15.00
2019-05-11T16:09:08.623Z,14.90
2019-05-11T16:11:38.768Z,14.80
2019-05-11T16:14:09.015Z,14.80
2019-05-11T16:16:39.270Z,15.00
2019-05-11T16:19:14.783Z,15.20
2019-05-11T16:21:40.178Z,15.30
2019-05-11T16:24:09.550Z,15.30
2019-05-11T16:26:38.902Z,15.10
2019-05-11T16:29:11.335Z,14.90
2019-05-11T16:31:39.217Z,14.80
2019-05-11T16:34:08.489Z,14.70
2019-05-11T16:36:39.000Z,14.60
2019-05-11T16:39:10.435Z,14.70
2019-05-11T16:41:40.029Z,14.80
2019-05-11T16:44:09.604Z,14.80
2019-05-11T16:46:39.085Z,14.80
2019-05-11T16:49:10.711Z,14.70
2019-05-11T16:51:39.560Z,14.50
2019-05-11T16:54:09.219Z,14.40
2019-05-11T16:56:38.567Z,14.30
2019-05-11T16:59:08.371Z,14.20
2019-05-11T17:01:38.136Z,14.10
2019-05-11T17:04:07.625Z,14.00
2019-05-11T17:06:38.523Z,14.10
2019-05-11T17:09:08.892Z,14.20
2019-05-11T17:11:38.882Z,14.20
2019-05-11T17:14:08.487Z,14.20
2019-05-11T17:16:38.490Z,14.30
2019-05-11T17:19:08.367Z,14.40
2019-05-11T17:21:38.353Z,14.40
2019-05-11T17:24:07.919Z,14.40
2019-05-11T17:26:38.559Z,14.30
2019-05-11T17:29:10.050Z,14.30
2019-05-11T17:31:39.129Z,14.30
2019-05-11T17:34:09.177Z,14.30
2019-05-11T17:36:38.699Z,14.10
2019-05-11T17:39:08.733Z,14.00
2019-05-11T17:41:38.651Z,13.90
2019-05-11T17:44:08.393Z,13.80
2019-05-11T17:46:38.452Z,13.70
2019-05-11T17:49:08.270Z,13.60
2019-05-11T17:51:38.010Z,13.60
2019-05-11T17:54:08.073Z,13.50
2019-05-11T17:56:38.883Z,13.30
2019-05-11T17:59:08.406Z,13.30
2019-05-11T18:01:37.775Z,13.10
2019-05-11T18:04:08.092Z,13.00
2019-05-11T18:06:38.461Z,12.90
2019-05-11T18:09:08.838Z,12.80
2019-05-11T18:11:38.336Z,12.70
2019-05-11T18:14:08.318Z,12.60
2019-05-11T18:16:37.753Z,12.40
2019-05-11T18:19:08.554Z,12.40
2019-05-11T18:21:38.850Z,12.30
2019-05-11T18:24:09.149Z,12.20
2019-05-11T18:26:38.653Z,12.10
2019-05-11T18:29:07.936Z,12.00
2019-05-11T18:31:38.359Z,11.90
2019-05-11T18:34:08.949Z,11.80
2019-05-11T18:36:38.445Z,11.70
2019-05-11T18:39:08.904Z,11.60
2019-05-11T18:41:39.169Z,11.50
2019-05-11T18:44:08.830Z,11.40
2019-05-11T18:46:38.954Z,11.30
2019-05-11T18:49:08.440Z,11.20
2019-05-11T18:51:38.042Z,11.10
2019-05-11T18:54:09.360Z,11.00
2019-05-11T18:56:38.530Z,10.90
2019-05-11T18:59:08.924Z,10.80
2019-05-11T19:01:38.723Z,10.70
2019-05-11T19:04:08.196Z,10.60
2019-05-11T19:06:38.008Z,10.50
2019-05-11T19:09:18.605Z,10.40
2019-05-11T19:11:48.879Z,10.30
2019-05-11T19:14:18.400Z,10.20
2019-05-11T19:16:49.182Z,10.10
2019-05-11T19:19:18.611Z,10.00
2019-05-11T19:21:48.284Z,10.00
2019-05-11T19:24:19.023Z,9.90
2019-05-11T19:26:51.226Z,9.80
2019-05-11T19:29:19.603Z,9.70
2019-05-11T19:31:48.968Z,9.60
2019-05-11T19:34:20.501Z,9.60
2019-05-11T19:36:49.673Z,9.50
2019-05-11T19:39:19.495Z,9.40
2019-05-11T19:41:49.084Z,9.30
2019-05-11T19:44:18.843Z,9.20
2019-05-11T19:46:48.434Z,9.10
2019-05-11T19:49:18.979Z,9.10
2019-05-11T19:51:48.790Z,9.00
2019-05-11T19:54:18.740Z,9.00
2019-05-11T19:56:48.233Z,8.90
2019-05-11T19:59:17.632Z,8.80
2019-05-11T20:01:46.982Z,8.80
2019-05-11T20:04:18.648Z,8.70
2019-05-11T20:06:47.939Z,8.60
2019-05-11T20:09:19.164Z,8.60
2019-05-11T20:11:48.467Z,8.50
2019-05-11T20:14:17.849Z,8.50
2019-05-11T20:16:47.786Z,8.40
2019-05-11T20:19:18.736Z,8.40
2019-05-11T20:21:48.580Z,8.30
2019-05-11T20:24:18.635Z,8.20
2019-05-11T20:26:48.092Z,8.20
2019-05-11T20:29:17.359Z,8.10
2019-05-11T20:31:46.738Z,8.00
2019-05-11T20:34:17.971Z,8.00
2019-05-11T20:36:48.113Z,7.90
2019-05-11T20:39:17.893Z,7.90
2019-05-11T20:41:47.786Z,7.80
2019-05-11T20:44:17.885Z,7.80
2019-05-11T20:46:48.670Z,7.70
2019-05-11T20:49:18.014Z,7.70
2019-05-11T20:51:48.515Z,7.70
2019-05-11T20:54:17.991Z,7.60
2019-05-11T20:56:47.890Z,7.50
2019-05-11T20:59:18.271Z,7.50
2019-05-11T21:01:47.996Z,7.40
2019-05-11T21:04:18.772Z,7.40
2019-05-11T21:06:48.338Z,7.40
2019-05-11T21:09:18.394Z,7.30
2019-05-11T21:11:48.059Z,7.30
2019-05-11T21:14:18.246Z,7.20
2019-05-11T21:16:47.904Z,7.20
2019-05-11T21:19:18.749Z,7.10
2019-05-11T21:21:53.511Z,7.10
2019-05-11T21:24:19.295Z,7.00
2019-05-11T21:26:48.654Z,7.00
2019-05-11T21:29:18.705Z,6.90
2019-05-11T21:31:48.629Z,6.80
2019-05-11T21:34:18.827Z,6.70
2019-05-11T21:36:48.479Z,6.70
2019-05-11T21:39:17.896Z,6.60
2019-05-11T21:41:47.800Z,6.60
2019-05-11T21:44:18.914Z,6.60
2019-05-11T21:46:48.389Z,6.50
2019-05-11T21:49:18.442Z,6.50
2019-05-11T21:52:04.692Z,6.50
2019-05-11T21:54:34.195Z,6.40
2019-05-11T21:57:03.491Z,6.30
2019-05-11T21:59:32.839Z,6.30
2019-05-11T22:02:02.092Z,6.20
2019-05-11T22:04:31.527Z,6.10
2019-05-11T22:07:00.893Z,6.10
2019-05-11T22:09:30.351Z,6.00
2019-05-11T22:11:59.770Z,6.00
2019-05-11T22:14:29.878Z,5.90
2019-05-11T22:17:02.464Z,5.90
2019-05-11T22:19:32.898Z,5.80
2019-05-11T22:22:02.246Z,5.80
2019-05-11T22:24:34.122Z,5.70
2019-05-11T22:27:03.395Z,5.60
2019-05-11T22:29:37.770Z,5.60
2019-05-11T22:32:06.499Z,5.60
2019-05-11T22:34:37.854Z,5.50
2019-05-11T22:37:08.609Z,5.40
2019-05-11T22:39:38.011Z,5.40
2019-05-11T22:42:07.970Z,5.30
2019-05-11T22:44:38.606Z,5.30
2019-05-11T22:47:09.018Z,5.20
2019-05-11T22:49:38.503Z,5.20
2019-05-11T22:52:08.574Z,5.20
2019-05-11T22:54:38.431Z,5.10
2019-05-11T22:57:08.191Z,5.10
2019-05-11T22:59:38.452Z,5.10
2019-05-11T23:02:10.673Z,5.10
2019-05-11T23:04:38.924Z,5.10
2019-05-11T23:07:08.330Z,5.10
2019-05-11T23:09:38.123Z,5.20
2019-05-11T23:12:08.980Z,5.20
2019-05-11T23:14:38.520Z,5.20
2019-05-11T23:17:08.154Z,5.10
2019-05-11T23:19:39.188Z,5.10
2019-05-11T23:22:08.464Z,5.10
2019-05-11T23:24:37.745Z,5.10
2019-05-11T23:27:08.010Z,5.10
2019-05-11T23:29:38.355Z,5.10
2019-05-11T23:32:08.689Z,5.10
2019-05-11T23:34:38.738Z,5.00
2019-05-11T23:37:08.250Z,5.00
2019-05-11T23:39:38.716Z,5.00
2019-05-11T23:42:08.414Z,5.00
2019-05-11T23:44:37.763Z,4.90
2019-05-11T23:47:07.053Z,4.90
2019-05-11T23:49:36.531Z,4.80
2019-05-11T23:52:07.635Z,4.80
2019-05-11T23:54:39.197Z,4.70
2019-05-11T23:57:09.357Z,4.70
2019-05-11T23:59:38.823Z,4.70
